sensor_id;sensor_type;location;lat;lon;timestamp;temperature;humidity
37222;DHT22;23119;51.842;-2.230;2022-12-08T00:01:42;0.30;99.90
37222;DHT22;23119;51.842;-2.230;2022-12-08T00:04:10;0.30;99.90
37222;DHT22;23119;51.842;-2.230;2022-12-08T00:06:40;0.30;99.90
37222;DHT22;23119;51.842;-2.230;2022-12-08T00:09:39;0.30;99.90
37222;DHT22;23119;51.842;-2.230;2022-12-08T00:12:10;0.30;99.90
37222;DHT22;23119;51.842;-2.230;2022-12-08T00:14:45;0.30;99.90
37222;DHT22;23119;51.842;-2.230;2022-12-08T00:17:15;0.30;99.90
37222;DHT22;23119;51.842;-2.230;2022-12-08T00:19:46;0.30;99.90
37222;DHT22;23119;51.842;-2.230;2022-12-08T00:22:14;0.40;99.90
37222;DHT22;23119;51.842;-2.230;2022-12-08T00:24:43;0.40;99.90
37222;DHT22;23119;51.842;-2.230;2022-12-08T00:27:13;0.40;99.90
37222;DHT22;23119;51.842;-2.230;2022-12-08T00:29:42;0.40;99.90
37222;DHT22;23119;51.842;-2.230;2022-12-08T00:32:13;0.40;99.90
37222;DHT22;23119;51.842;-2.230;2022-12-08T00:34:46;0.40;99.90
37222;DHT22;23119;51.842;-2.230;2022-12-08T00:37:12;0.30;99.90
37222;DHT22;23119;51.842;-2.230;2022-12-08T00:39:40;0.30;99.90
37222;DHT22;23119;51.842;-2.230;2022-12-08T00:42:07;0.20;99.90
37222;DHT22;23119;51.842;-2.230;2022-12-08T00:44:42;0.20;99.90
37222;DHT22;23119;51.842;-2.230;2022-12-08T00:47:11;0.10;99.90
37222;DHT22;23119;51.842;-2.230;2022-12-08T00:49:43;0.10;99.90
37222;DHT22;23119;51.842;-2.230;2022-12-08T00:52:11;0.10;99.90
37222;DHT22;23119;51.842;-2.230;2022-12-08T00:54:41;0.10;99.90
37222;DHT22;23119;51.842;-2.230;2022-12-08T00:57:10;0.00;99.90
37222;DHT22;23119;51.842;-2.230;2022-12-08T00:59:38;0.00;99.90
37222;DHT22;23119;51.842;-2.230;2022-12-08T01:02:06;0.00;99.90
37222;DHT22;23119;51.842;-2.230;2022-12-08T01:04:37;0.00;99.90
37222;DHT22;23119;51.842;-2.230;2022-12-08T01:07:06;0.00;99.90
37222;DHT22;23119;51.842;-2.230;2022-12-08T01:09:35;0.00;99.90
37222;DHT22;23119;51.842;-2.230;2022-12-08T01:12:03;-0.10;99.90
37222;DHT22;23119;51.842;-2.230;2022-12-08T01:14:29;0.00;99.90
37222;DHT22;23119;51.842;-2.230;2022-12-08T01:16:57;0.00;99.90
37222;DHT22;23119;51.842;-2.230;2022-12-08T01:19:23;0.00;99.90
37222;DHT22;23119;51.842;-2.230;2022-12-08T01:21:51;0.00;99.90
37222;DHT22;23119;51.842;-2.230;2022-12-08T01:24:19;0.00;99.90
37222;DHT22;23119;51.842;-2.230;2022-12-08T01:26:49;0.00;99.90
37222;DHT22;23119;51.842;-2.230;2022-12-08T01:29:15;0.00;99.90
37222;DHT22;23119;51.842;-2.230;2022-12-08T01:31:44;0.00;99.90
37222;DHT22;23119;51.842;-2.230;2022-12-08T01:34:15;0.00;99.90
37222;DHT22;23119;51.842;-2.230;2022-12-08T01:36:44;0.00;99.90
37222;DHT22;23119;51.842;-2.230;2022-12-08T01:39:14;0.00;99.90
37222;DHT22;23119;51.842;-2.230;2022-12-08T01:41:41;0.00;99.90
37222;DHT22;23119;51.842;-2.230;2022-12-08T01:46:37;0.00;99.90
37222;DHT22;23119;51.842;-2.230;2022-12-08T01:52:04;0.00;99.90
37222;DHT22;23119;51.842;-2.230;2022-12-08T01:54:35;0.00;99.90
37222;DHT22;23119;51.842;-2.230;2022-12-08T01:57:09;0.00;99.90
37222;DHT22;23119;51.842;-2.230;2022-12-08T01:59:40;0.00;99.90
37222;DHT22;23119;51.842;-2.230;2022-12-08T02:02:08;0.00;99.90
37222;DHT22;23119;51.842;-2.230;2022-12-08T02:04:36;0.00;99.90
37222;DHT22;23119;51.842;-2.230;2022-12-08T02:07:06;0.00;99.90
37222;DHT22;23119;51.842;-2.230;2022-12-08T02:09:33;-0.10;99.90
37222;DHT22;23119;51.842;-2.230;2022-12-08T02:11:59;-0.10;99.90
37222;DHT22;23119;51.842;-2.230;2022-12-08T02:14:25;-0.10;99.90
37222;DHT22;23119;51.842;-2.230;2022-12-08T02:17:07;-0.10;99.90
37222;DHT22;23119;51.842;-2.230;2022-12-08T02:20:05;-0.10;99.90
37222;DHT22;23119;51.842;-2.230;2022-12-08T02:23:04;-0.10;99.90
37222;DHT22;23119;51.842;-2.230;2022-12-08T02:45:03;-0.20;99.90
37222;DHT22;23119;51.842;-2.230;2022-12-08T02:47:34;-0.10;99.90
37222;DHT22;23119;51.842;-2.230;2022-12-08T02:50:00;-0.20;99.90
37222;DHT22;23119;51.842;-2.230;2022-12-08T02:55:02;-0.20;99.90
37222;DHT22;23119;51.842;-2.230;2022-12-08T03:00:19;-0.20;99.90
37222;DHT22;23119;51.842;-2.230;2022-12-08T03:08:22;-0.20;99.90
37222;DHT22;23119;51.842;-2.230;2022-12-08T03:11:08;-0.20;99.90
37222;DHT22;23119;51.842;-2.230;2022-12-08T03:13:44;-0.10;99.90
37222;DHT22;23119;51.842;-2.230;2022-12-08T03:16:16;-0.10;99.90
37222;DHT22;23119;51.842;-2.230;2022-12-08T03:18:47;0.00;99.90
37222;DHT22;23119;51.842;-2.230;2022-12-08T03:21:17;0.00;99.90
37222;DHT22;23119;51.842;-2.230;2022-12-08T03:23:49;0.10;99.90
37222;DHT22;23119;51.842;-2.230;2022-12-08T03:26:29;0.10;99.90
37222;DHT22;23119;51.842;-2.230;2022-12-08T03:28:58;0.10;99.90
37222;DHT22;23119;51.842;-2.230;2022-12-08T03:31:26;0.20;99.90
37222;DHT22;23119;51.842;-2.230;2022-12-08T03:33:54;0.30;99.90
37222;DHT22;23119;51.842;-2.230;2022-12-08T03:36:24;0.30;99.90
37222;DHT22;23119;51.842;-2.230;2022-12-08T03:38:53;0.30;99.90
37222;DHT22;23119;51.842;-2.230;2022-12-08T03:41:22;0.40;99.90
37222;DHT22;23119;51.842;-2.230;2022-12-08T03:43:52;0.40;99.90
37222;DHT22;23119;51.842;-2.230;2022-12-08T03:46:23;0.40;99.90
37222;DHT22;23119;51.842;-2.230;2022-12-08T03:48:52;0.40;99.90
37222;DHT22;23119;51.842;-2.230;2022-12-08T03:51:21;0.40;99.90
37222;DHT22;23119;51.842;-2.230;2022-12-08T03:53:48;0.40;99.90
37222;DHT22;23119;51.842;-2.230;2022-12-08T03:56:29;0.40;99.90
37222;DHT22;23119;51.842;-2.230;2022-12-08T03:58:55;0.30;99.90
37222;DHT22;23119;51.842;-2.230;2022-12-08T04:01:23;0.20;99.90
37222;DHT22;23119;51.842;-2.230;2022-12-08T04:03:53;0.20;99.90
37222;DHT22;23119;51.842;-2.230;2022-12-08T04:06:19;0.20;99.90
37222;DHT22;23119;51.842;-2.230;2022-12-08T04:08:45;0.10;99.90
37222;DHT22;23119;51.842;-2.230;2022-12-08T04:11:13;0.00;99.90
37222;DHT22;23119;51.842;-2.230;2022-12-08T04:13:43;0.00;99.90
37222;DHT22;23119;51.842;-2.230;2022-12-08T04:16:17;0.00;99.90
37222;DHT22;23119;51.842;-2.230;2022-12-08T04:18:46;-0.10;99.90
37222;DHT22;23119;51.842;-2.230;2022-12-08T04:21:14;-0.10;99.90
37222;DHT22;23119;51.842;-2.230;2022-12-08T04:23:46;-0.20;99.90
37222;DHT22;23119;51.842;-2.230;2022-12-08T04:26:12;-0.20;99.90
37222;DHT22;23119;51.842;-2.230;2022-12-08T04:28:38;-0.30;99.90
37222;DHT22;23119;51.842;-2.230;2022-12-08T04:31:06;-0.20;99.90
37222;DHT22;23119;51.842;-2.230;2022-12-08T04:33:38;-0.30;99.90
37222;DHT22;23119;51.842;-2.230;2022-12-08T04:36:07;-0.30;99.90
37222;DHT22;23119;51.842;-2.230;2022-12-08T04:38:33;-0.40;99.90
37222;DHT22;23119;51.842;-2.230;2022-12-08T04:41:08;-0.30;99.90
37222;DHT22;23119;51.842;-2.230;2022-12-08T04:43:36;-0.40;99.90
37222;DHT22;23119;51.842;-2.230;2022-12-08T04:46:08;-0.50;99.90
37222;DHT22;23119;51.842;-2.230;2022-12-08T04:48:37;-0.50;99.90
37222;DHT22;23119;51.842;-2.230;2022-12-08T04:51:03;-0.50;99.90
37222;DHT22;23119;51.842;-2.230;2022-12-08T04:53:29;-0.50;99.90
37222;DHT22;23119;51.842;-2.230;2022-12-08T04:55:54;-0.50;99.90
37222;DHT22;23119;51.842;-2.230;2022-12-08T04:58:26;-0.50;99.90
37222;DHT22;23119;51.842;-2.230;2022-12-08T05:00:51;-0.50;99.90
37222;DHT22;23119;51.842;-2.230;2022-12-08T05:03:17;-0.50;99.90
37222;DHT22;23119;51.842;-2.230;2022-12-08T05:05:45;-0.50;99.90
37222;DHT22;23119;51.842;-2.230;2022-12-08T05:08:13;-0.50;99.90
37222;DHT22;23119;51.842;-2.230;2022-12-08T05:10:39;-0.50;99.90
37222;DHT22;23119;51.842;-2.230;2022-12-08T05:13:07;-0.50;99.90
37222;DHT22;23119;51.842;-2.230;2022-12-08T05:15:33;-0.50;99.90
37222;DHT22;23119;51.842;-2.230;2022-12-08T05:17:58;-0.60;99.90
37222;DHT22;23119;51.842;-2.230;2022-12-08T05:20:24;-0.50;99.90
37222;DHT22;23119;51.842;-2.230;2022-12-08T05:22:50;-0.50;99.90
37222;DHT22;23119;51.842;-2.230;2022-12-08T05:25:16;-0.60;99.90
37222;DHT22;23119;51.842;-2.230;2022-12-08T05:27:44;-0.60;99.90
37222;DHT22;23119;51.842;-2.230;2022-12-08T05:30:10;0.80;99.90
37222;DHT22;23119;51.842;-2.230;2022-12-08T05:32:36;-0.50;99.90
37222;DHT22;23119;51.842;-2.230;2022-12-08T05:35:01;-0.50;99.90
37222;DHT22;23119;51.842;-2.230;2022-12-08T05:37:27;-0.50;99.90
37222;DHT22;23119;51.842;-2.230;2022-12-08T05:39:53;-0.50;99.90
37222;DHT22;23119;51.842;-2.230;2022-12-08T05:42:21;-0.50;99.90
37222;DHT22;23119;51.842;-2.230;2022-12-08T05:44:52;1.60;99.90
37222;DHT22;23119;51.842;-2.230;2022-12-08T05:47:22;-0.50;99.90
37222;DHT22;23119;51.842;-2.230;2022-12-08T05:49:48;-0.50;99.90
37222;DHT22;23119;51.842;-2.230;2022-12-08T05:52:21;-0.50;99.90
37222;DHT22;23119;51.842;-2.230;2022-12-08T05:54:46;-0.50;99.90
37222;DHT22;23119;51.842;-2.230;2022-12-08T05:57:12;-0.50;99.90
37222;DHT22;23119;51.842;-2.230;2022-12-08T05:59:43;-0.50;99.90
37222;DHT22;23119;51.842;-2.230;2022-12-08T06:02:08;-0.40;99.90
37222;DHT22;23119;51.842;-2.230;2022-12-08T06:04:40;-0.50;99.90
37222;DHT22;23119;51.842;-2.230;2022-12-08T06:07:09;-0.50;99.90
37222;DHT22;23119;51.842;-2.230;2022-12-08T06:09:34;-0.50;99.90
37222;DHT22;23119;51.842;-2.230;2022-12-08T06:12:01;-0.50;99.90
37222;DHT22;23119;51.842;-2.230;2022-12-08T06:14:31;-0.40;99.90
37222;DHT22;23119;51.842;-2.230;2022-12-08T06:16:56;-0.40;99.90
37222;DHT22;23119;51.842;-2.230;2022-12-08T06:19:25;-0.40;99.90
37222;DHT22;23119;51.842;-2.230;2022-12-08T06:21:53;-0.40;99.90
37222;DHT22;23119;51.842;-2.230;2022-12-08T06:24:19;-0.40;99.90
37222;DHT22;23119;51.842;-2.230;2022-12-08T06:26:44;-0.30;99.90
37222;DHT22;23119;51.842;-2.230;2022-12-08T06:29:11;-0.40;99.90
37222;DHT22;23119;51.842;-2.230;2022-12-08T06:31:37;-0.40;99.90
37222;DHT22;23119;51.842;-2.230;2022-12-08T06:34:10;-0.40;99.90
37222;DHT22;23119;51.842;-2.230;2022-12-08T06:36:35;-0.40;99.90
37222;DHT22;23119;51.842;-2.230;2022-12-08T06:39:01;-0.40;99.90
37222;DHT22;23119;51.842;-2.230;2022-12-08T06:41:27;-0.20;99.90
37222;DHT22;23119;51.842;-2.230;2022-12-08T06:43:58;-0.30;99.90
37222;DHT22;23119;51.842;-2.230;2022-12-08T06:46:26;-0.20;99.90
37222;DHT22;23119;51.842;-2.230;2022-12-08T06:48:54;-0.30;99.90
37222;DHT22;23119;51.842;-2.230;2022-12-08T06:51:20;-0.30;99.90
37222;DHT22;23119;51.842;-2.230;2022-12-08T06:53:48;-0.30;99.90
37222;DHT22;23119;51.842;-2.230;2022-12-08T06:56:19;-0.30;99.90
37222;DHT22;23119;51.842;-2.230;2022-12-08T06:58:46;-0.30;99.90
37222;DHT22;23119;51.842;-2.230;2022-12-08T07:01:12;-0.30;99.90
37222;DHT22;23119;51.842;-2.230;2022-12-08T07:03:58;-0.30;99.90
37222;DHT22;23119;51.842;-2.230;2022-12-08T07:06:26;-0.20;99.90
37222;DHT22;23119;51.842;-2.230;2022-12-08T07:08:55;-0.30;99.90
37222;DHT22;23119;51.842;-2.230;2022-12-08T07:11:20;-0.30;99.90
37222;DHT22;23119;51.842;-2.230;2022-12-08T07:13:46;-0.30;99.90
37222;DHT22;23119;51.842;-2.230;2022-12-08T07:16:14;-0.40;99.90
37222;DHT22;23119;51.842;-2.230;2022-12-08T07:18:40;-0.40;99.90
37222;DHT22;23119;51.842;-2.230;2022-12-08T07:21:14;-0.40;99.90
37222;DHT22;23119;51.842;-2.230;2022-12-08T07:23:44;-0.40;99.90
37222;DHT22;23119;51.842;-2.230;2022-12-08T07:26:13;-0.50;99.90
37222;DHT22;23119;51.842;-2.230;2022-12-08T07:28:45;-0.50;99.90
37222;DHT22;23119;51.842;-2.230;2022-12-08T07:31:25;-0.30;99.90
37222;DHT22;23119;51.842;-2.230;2022-12-08T07:33:53;-0.50;99.90
37222;DHT22;23119;51.842;-2.230;2022-12-08T07:36:22;-0.50;99.90
37222;DHT22;23119;51.842;-2.230;2022-12-08T07:38:51;-0.50;99.90
37222;DHT22;23119;51.842;-2.230;2022-12-08T07:41:20;-0.50;99.90
37222;DHT22;23119;51.842;-2.230;2022-12-08T07:43:47;-0.50;99.90
37222;DHT22;23119;51.842;-2.230;2022-12-08T07:46:14;-0.60;99.90
37222;DHT22;23119;51.842;-2.230;2022-12-08T07:48:46;-0.60;99.90
37222;DHT22;23119;51.842;-2.230;2022-12-08T07:51:15;-0.60;99.90
37222;DHT22;23119;51.842;-2.230;2022-12-08T07:53:45;-0.60;99.90
37222;DHT22;23119;51.842;-2.230;2022-12-08T07:56:12;-0.60;99.90
37222;DHT22;23119;51.842;-2.230;2022-12-08T07:58:38;-0.60;99.90
37222;DHT22;23119;51.842;-2.230;2022-12-08T08:01:20;-0.60;99.90
37222;DHT22;23119;51.842;-2.230;2022-12-08T08:03:46;-0.60;99.90
37222;DHT22;23119;51.842;-2.230;2022-12-08T08:06:12;-0.60;99.90
37222;DHT22;23119;51.842;-2.230;2022-12-08T08:08:43;-0.60;99.90
37222;DHT22;23119;51.842;-2.230;2022-12-08T08:11:12;-0.60;99.90
37222;DHT22;23119;51.842;-2.230;2022-12-08T08:13:37;0.50;99.90
37222;DHT22;23119;51.842;-2.230;2022-12-08T08:16:08;-0.60;99.90
37222;DHT22;23119;51.842;-2.230;2022-12-08T08:18:36;-0.60;99.90
37222;DHT22;23119;51.842;-2.230;2022-12-08T08:21:08;-0.60;99.90
37222;DHT22;23119;51.842;-2.230;2022-12-08T08:23:34;-0.60;99.90
37222;DHT22;23119;51.842;-2.230;2022-12-08T08:26:01;-0.60;99.90
37222;DHT22;23119;51.842;-2.230;2022-12-08T08:28:29;-0.50;99.90
37222;DHT22;23119;51.842;-2.230;2022-12-08T08:30:55;-0.50;99.90
37222;DHT22;23119;51.842;-2.230;2022-12-08T08:33:24;-0.50;99.90
37222;DHT22;23119;51.842;-2.230;2022-12-08T08:35:53;-0.40;99.90
37222;DHT22;23119;51.842;-2.230;2022-12-08T08:38:22;-0.40;99.90
37222;DHT22;23119;51.842;-2.230;2022-12-08T08:40:50;-0.40;99.90
37222;DHT22;23119;51.842;-2.230;2022-12-08T08:43:18;-0.30;99.90
37222;DHT22;23119;51.842;-2.230;2022-12-08T08:45:57;-0.30;99.90
37222;DHT22;23119;51.842;-2.230;2022-12-08T08:48:25;-0.30;99.90
37222;DHT22;23119;51.842;-2.230;2022-12-08T08:50:51;-0.20;99.90
37222;DHT22;23119;51.842;-2.230;2022-12-08T08:53:20;-0.20;99.90
37222;DHT22;23119;51.842;-2.230;2022-12-08T08:55:46;-0.20;99.90
37222;DHT22;23119;51.842;-2.230;2022-12-08T08:58:11;-0.10;99.90
37222;DHT22;23119;51.842;-2.230;2022-12-08T09:00:37;-0.10;99.90
37222;DHT22;23119;51.842;-2.230;2022-12-08T09:03:06;-0.10;99.90
37222;DHT22;23119;51.842;-2.230;2022-12-08T09:05:31;0.00;99.90
37222;DHT22;23119;51.842;-2.230;2022-12-08T09:08:03;0.00;99.90
37222;DHT22;23119;51.842;-2.230;2022-12-08T09:10:29;0.10;99.90
37222;DHT22;23119;51.842;-2.230;2022-12-08T09:12:55;0.10;99.90
37222;DHT22;23119;51.842;-2.230;2022-12-08T09:15:20;0.20;99.90
37222;DHT22;23119;51.842;-2.230;2022-12-08T09:17:48;0.20;99.90
37222;DHT22;23119;51.842;-2.230;2022-12-08T09:20:14;0.30;99.90
37222;DHT22;23119;51.842;-2.230;2022-12-08T09:22:40;0.30;99.90
37222;DHT22;23119;51.842;-2.230;2022-12-08T09:25:06;0.30;99.90
37222;DHT22;23119;51.842;-2.230;2022-12-08T09:27:34;0.40;99.90
37222;DHT22;23119;51.842;-2.230;2022-12-08T09:30:00;2.50;99.90
37222;DHT22;23119;51.842;-2.230;2022-12-08T09:32:26;1.30;99.90
37222;DHT22;23119;51.842;-2.230;2022-12-08T09:34:53;2.20;99.90
37222;DHT22;23119;51.842;-2.230;2022-12-08T09:37:22;3.00;99.90
37222;DHT22;23119;51.842;-2.230;2022-12-08T09:39:47;3.40;99.90
37222;DHT22;23119;51.842;-2.230;2022-12-08T09:42:27;3.90;99.90
37222;DHT22;23119;51.842;-2.230;2022-12-08T09:45:16;4.70;99.90
37222;DHT22;23119;51.842;-2.230;2022-12-08T09:47:45;5.90;99.90
37222;DHT22;23119;51.842;-2.230;2022-12-08T09:50:17;7.10;99.90
37222;DHT22;23119;51.842;-2.230;2022-12-08T09:55:45;9.50;99.90
37222;DHT22;23119;51.842;-2.230;2022-12-08T10:01:03;11.60;99.90
37222;DHT22;23119;51.842;-2.230;2022-12-08T10:03:31;12.40;99.90
37222;DHT22;23119;51.842;-2.230;2022-12-08T10:06:09;13.10;99.90
37222;DHT22;23119;51.842;-2.230;2022-12-08T10:14:46;14.50;99.90
37222;DHT22;23119;51.842;-2.230;2022-12-08T10:20:31;14.90;99.20
37222;DHT22;23119;51.842;-2.230;2022-12-08T10:23:15;14.80;99.70
37222;DHT22;23119;51.842;-2.230;2022-12-08T10:26:00;14.60;99.90
37222;DHT22;23119;51.842;-2.230;2022-12-08T10:28:36;14.20;99.90
37222;DHT22;23119;51.842;-2.230;2022-12-08T10:31:04;13.40;99.90
37222;DHT22;23119;51.842;-2.230;2022-12-08T10:33:31;12.60;99.90
37222;DHT22;23119;51.842;-2.230;2022-12-08T10:36:01;11.90;99.90
37222;DHT22;23119;51.842;-2.230;2022-12-08T10:38:31;11.20;99.90
37222;DHT22;23119;51.842;-2.230;2022-12-08T10:43:49;10.30;99.90
37222;DHT22;23119;51.842;-2.230;2022-12-08T10:46:21;10.10;99.90
37222;DHT22;23119;51.842;-2.230;2022-12-08T10:51:41;9.40;99.90
37222;DHT22;23119;51.842;-2.230;2022-12-08T10:54:31;8.70;99.90
37222;DHT22;23119;51.842;-2.230;2022-12-08T10:56:57;8.00;99.90
37222;DHT22;23119;51.842;-2.230;2022-12-08T10:59:24;7.30;99.90
37222;DHT22;23119;51.842;-2.230;2022-12-08T11:01:55;6.90;99.90
37222;DHT22;23119;51.842;-2.230;2022-12-08T11:04:33;6.30;99.90
37222;DHT22;23119;51.842;-2.230;2022-12-08T11:07:02;5.90;99.90
37222;DHT22;23119;51.842;-2.230;2022-12-08T11:09:40;5.50;99.90
37222;DHT22;23119;51.842;-2.230;2022-12-08T11:12:18;5.20;99.90
37222;DHT22;23119;51.842;-2.230;2022-12-08T11:17:24;4.40;99.90
37222;DHT22;23119;51.842;-2.230;2022-12-08T11:19:59;4.10;99.90
37222;DHT22;23119;51.842;-2.230;2022-12-08T11:22:28;3.90;99.90
37222;DHT22;23119;51.842;-2.230;2022-12-08T11:25:09;3.70;99.90
37222;DHT22;23119;51.842;-2.230;2022-12-08T11:27:43;3.60;99.90
37222;DHT22;23119;51.842;-2.230;2022-12-08T11:30:26;3.50;99.90
37222;DHT22;23119;51.842;-2.230;2022-12-08T11:33:18;3.40;99.90
37222;DHT22;23119;51.842;-2.230;2022-12-08T11:35:51;3.30;99.90
37222;DHT22;23119;51.842;-2.230;2022-12-08T11:38:22;3.30;99.90
37222;DHT22;23119;51.842;-2.230;2022-12-08T11:41:10;3.20;99.90
37222;DHT22;23119;51.842;-2.230;2022-12-08T11:46:22;3.10;99.90
37222;DHT22;23119;51.842;-2.230;2022-12-08T11:48:54;3.00;99.90
37222;DHT22;23119;51.842;-2.230;2022-12-08T11:51:56;2.90;99.90
37222;DHT22;23119;51.842;-2.230;2022-12-08T11:54:31;2.90;99.90
37222;DHT22;23119;51.842;-2.230;2022-12-08T11:56:59;2.80;99.90
37222;DHT22;23119;51.842;-2.230;2022-12-08T11:59:38;2.70;99.90
37222;DHT22;23119;51.842;-2.230;2022-12-08T12:02:19;2.70;99.90
37222;DHT22;23119;51.842;-2.230;2022-12-08T12:20:58;2.50;99.90
37222;DHT22;23119;51.842;-2.230;2022-12-08T12:23:40;2.40;99.90
37222;DHT22;23119;51.842;-2.230;2022-12-08T12:26:16;2.50;99.90
37222;DHT22;23119;51.842;-2.230;2022-12-08T12:31:27;2.40;99.90
37222;DHT22;23119;51.842;-2.230;2022-12-08T12:34:02;2.40;99.90
37222;DHT22;23119;51.842;-2.230;2022-12-08T12:36:31;2.40;99.90
37222;DHT22;23119;51.842;-2.230;2022-12-08T12:39:10;2.40;99.90
37222;DHT22;23119;51.842;-2.230;2022-12-08T12:41:45;2.40;99.90
37222;DHT22;23119;51.842;-2.230;2022-12-08T12:46:51;2.40;99.90
37222;DHT22;23119;51.842;-2.230;2022-12-08T13:05:24;2.60;99.90
37222;DHT22;23119;51.842;-2.230;2022-12-08T13:08:02;2.80;99.90
37222;DHT22;23119;51.842;-2.230;2022-12-08T13:10:36;2.90;99.90
37222;DHT22;23119;51.842;-2.230;2022-12-08T13:18:27;3.50;99.90
37222;DHT22;23119;51.842;-2.230;2022-12-08T13:21:13;3.70;99.90
37222;DHT22;23119;51.842;-2.230;2022-12-08T13:26:26;4.00;99.90
37222;DHT22;23119;51.842;-2.230;2022-12-08T13:31:38;4.20;99.90
37222;DHT22;23119;51.842;-2.230;2022-12-08T13:44:42;4.30;99.90
37222;DHT22;23119;51.842;-2.230;2022-12-08T13:47:23;4.30;99.90
37222;DHT22;23119;51.842;-2.230;2022-12-08T13:50:14;4.40;99.90
37222;DHT22;23119;51.842;-2.230;2022-12-08T13:55:45;4.30;99.90
37222;DHT22;23119;51.842;-2.230;2022-12-08T13:58:36;4.30;99.90
37222;DHT22;23119;51.842;-2.230;2022-12-08T14:01:06;4.30;99.90
37222;DHT22;23119;51.842;-2.230;2022-12-08T14:03:56;4.40;99.90
37222;DHT22;23119;51.842;-2.230;2022-12-08T14:08:58;4.30;99.90
37222;DHT22;23119;51.842;-2.230;2022-12-08T14:11:34;4.30;99.90
37222;DHT22;23119;51.842;-2.230;2022-12-08T14:14:15;4.30;99.90
37222;DHT22;23119;51.842;-2.230;2022-12-08T14:16:52;4.30;99.90
37222;DHT22;23119;51.842;-2.230;2022-12-08T14:19:24;4.20;99.90
37222;DHT22;23119;51.842;-2.230;2022-12-08T14:24:29;4.10;99.90
37222;DHT22;23119;51.842;-2.230;2022-12-08T14:27:10;4.10;99.90
37222;DHT22;23119;51.842;-2.230;2022-12-08T14:29:50;4.10;99.90
37222;DHT22;23119;51.842;-2.230;2022-12-08T14:32:32;4.10;99.90
37222;DHT22;23119;51.842;-2.230;2022-12-08T14:37:41;4.00;99.90
37222;DHT22;23119;51.842;-2.230;2022-12-08T14:40:24;3.90;99.90
37222;DHT22;23119;51.842;-2.230;2022-12-08T14:45:50;3.80;99.90
37222;DHT22;23119;51.842;-2.230;2022-12-08T14:56:38;3.60;99.90
37222;DHT22;23119;51.842;-2.230;2022-12-08T15:01:35;3.50;99.90
37222;DHT22;23119;51.842;-2.230;2022-12-08T15:04:29;3.50;99.90
37222;DHT22;23119;51.842;-2.230;2022-12-08T15:07:06;3.50;99.90
37222;DHT22;23119;51.842;-2.230;2022-12-08T15:09:37;3.40;99.90
37222;DHT22;23119;51.842;-2.230;2022-12-08T15:12:25;3.40;99.90
37222;DHT22;23119;51.842;-2.230;2022-12-08T15:15:17;3.30;99.90
37222;DHT22;23119;51.842;-2.230;2022-12-08T15:17:57;3.30;99.90
37222;DHT22;23119;51.842;-2.230;2022-12-08T15:20:50;3.20;99.90
37222;DHT22;23119;51.842;-2.230;2022-12-08T15:23:24;3.10;99.90
37222;DHT22;23119;51.842;-2.230;2022-12-08T15:25:53;3.10;99.90
37222;DHT22;23119;51.842;-2.230;2022-12-08T15:28:22;3.00;99.90
37222;DHT22;23119;51.842;-2.230;2022-12-08T15:30:51;2.90;99.90
37222;DHT22;23119;51.842;-2.230;2022-12-08T15:33:20;2.80;99.90
37222;DHT22;23119;51.842;-2.230;2022-12-08T15:35:47;2.60;99.90
37222;DHT22;23119;51.842;-2.230;2022-12-08T15:38:26;2.60;99.90
37222;DHT22;23119;51.842;-2.230;2022-12-08T15:40:54;2.40;99.90
37222;DHT22;23119;51.842;-2.230;2022-12-08T15:43:23;2.30;99.90
37222;DHT22;23119;51.842;-2.230;2022-12-08T15:45:53;2.30;99.90
37222;DHT22;23119;51.842;-2.230;2022-12-08T15:48:25;2.20;99.90
37222;DHT22;23119;51.842;-2.230;2022-12-08T15:50:54;2.00;99.90
37222;DHT22;23119;51.842;-2.230;2022-12-08T15:53:21;2.00;99.90
37222;DHT22;23119;51.842;-2.230;2022-12-08T15:55:47;1.90;99.90
37222;DHT22;23119;51.842;-2.230;2022-12-08T15:58:22;1.80;99.90
37222;DHT22;23119;51.842;-2.230;2022-12-08T16:00:51;1.70;99.90
37222;DHT22;23119;51.842;-2.230;2022-12-08T16:03:30;1.70;99.90
37222;DHT22;23119;51.842;-2.230;2022-12-08T16:05:57;1.60;99.90
37222;DHT22;23119;51.842;-2.230;2022-12-08T16:08:35;1.50;99.90
37222;DHT22;23119;51.842;-2.230;2022-12-08T16:11:01;1.50;99.90
37222;DHT22;23119;51.842;-2.230;2022-12-08T16:13:45;1.40;99.90
37222;DHT22;23119;51.842;-2.230;2022-12-08T16:16:19;1.40;99.90
37222;DHT22;23119;51.842;-2.230;2022-12-08T16:18:50;1.30;99.90
37222;DHT22;23119;51.842;-2.230;2022-12-08T16:21:19;1.30;99.90
37222;DHT22;23119;51.842;-2.230;2022-12-08T16:23:45;1.20;99.90
37222;DHT22;23119;51.842;-2.230;2022-12-08T16:26:20;1.20;99.90
37222;DHT22;23119;51.842;-2.230;2022-12-08T16:28:50;1.20;99.90
37222;DHT22;23119;51.842;-2.230;2022-12-08T16:31:16;1.10;99.90
37222;DHT22;23119;51.842;-2.230;2022-12-08T16:33:47;1.10;99.90
37222;DHT22;23119;51.842;-2.230;2022-12-08T16:36:18;1.10;99.90
37222;DHT22;23119;51.842;-2.230;2022-12-08T16:38:43;1.00;99.90
37222;DHT22;23119;51.842;-2.230;2022-12-08T16:41:17;1.00;99.90
37222;DHT22;23119;51.842;-2.230;2022-12-08T16:44:05;1.00;99.90
37222;DHT22;23119;51.842;-2.230;2022-12-08T16:46:33;1.00;99.90
37222;DHT22;23119;51.842;-2.230;2022-12-08T16:49:07;0.90;99.90
37222;DHT22;23119;51.842;-2.230;2022-12-08T16:51:37;0.90;99.90
37222;DHT22;23119;51.842;-2.230;2022-12-08T16:54:08;0.90;99.90
37222;DHT22;23119;51.842;-2.230;2022-12-08T16:56:34;0.80;99.90
37222;DHT22;23119;51.842;-2.230;2022-12-08T16:59:03;0.80;99.90
37222;DHT22;23119;51.842;-2.230;2022-12-08T17:01:46;0.80;99.90
37222;DHT22;23119;51.842;-2.230;2022-12-08T17:04:14;0.80;99.90
37222;DHT22;23119;51.842;-2.230;2022-12-08T17:06:40;0.80;99.90
37222;DHT22;23119;51.842;-2.230;2022-12-08T17:09:06;0.70;99.90
37222;DHT22;23119;51.842;-2.230;2022-12-08T17:11:39;0.70;99.90
37222;DHT22;23119;51.842;-2.230;2022-12-08T17:14:07;0.70;99.90
37222;DHT22;23119;51.842;-2.230;2022-12-08T17:16:36;0.70;99.90
37222;DHT22;23119;51.842;-2.230;2022-12-08T17:19:05;0.70;99.90
37222;DHT22;23119;51.842;-2.230;2022-12-08T17:21:34;0.70;99.90
37222;DHT22;23119;51.842;-2.230;2022-12-08T17:24:05;0.60;99.90
37222;DHT22;23119;51.842;-2.230;2022-12-08T17:26:31;0.60;99.90
37222;DHT22;23119;51.842;-2.230;2022-12-08T17:29:00;0.60;99.90
37222;DHT22;23119;51.842;-2.230;2022-12-08T17:31:27;0.60;99.90
37222;DHT22;23119;51.842;-2.230;2022-12-08T17:34:01;0.60;99.90
37222;DHT22;23119;51.842;-2.230;2022-12-08T17:36:33;0.60;99.90
37222;DHT22;23119;51.842;-2.230;2022-12-08T17:39:06;0.60;99.90
37222;DHT22;23119;51.842;-2.230;2022-12-08T17:41:41;0.60;99.90
37222;DHT22;23119;51.842;-2.230;2022-12-08T17:44:12;0.50;99.90
37222;DHT22;23119;51.842;-2.230;2022-12-08T17:46:38;0.50;99.90
37222;DHT22;23119;51.842;-2.230;2022-12-08T17:49:15;0.50;99.90
37222;DHT22;23119;51.842;-2.230;2022-12-08T17:51:41;0.50;99.90
37222;DHT22;23119;51.842;-2.230;2022-12-08T17:54:09;0.50;99.90
37222;DHT22;23119;51.842;-2.230;2022-12-08T17:56:40;0.40;99.90
37222;DHT22;23119;51.842;-2.230;2022-12-08T17:59:05;0.50;99.90
37222;DHT22;23119;51.842;-2.230;2022-12-08T18:01:34;0.50;99.90
37222;DHT22;23119;51.842;-2.230;2022-12-08T18:04:06;0.50;99.90
37222;DHT22;23119;51.842;-2.230;2022-12-08T18:06:34;0.40;99.90
37222;DHT22;23119;51.842;-2.230;2022-12-08T18:09:04;0.40;99.90
37222;DHT22;23119;51.842;-2.230;2022-12-08T18:11:31;0.40;99.90
37222;DHT22;23119;51.842;-2.230;2022-12-08T18:13:57;0.40;99.90